sensor_id;sensor_type;location;lat;lon;timestamp;temperature;humidity
782;DHT22;374;52.568;13.402;2023-09-12T00:00:44;23.10;99.90
782;DHT22;374;52.568;13.402;2023-09-12T00:03:09;23.10;99.90
782;DHT22;374;52.568;13.402;2023-09-12T00:05:35;23.10;99.90
782;DHT22;374;52.568;13.402;2023-09-12T00:08:00;23.10;99.90
782;DHT22;374;52.568;13.402;2023-09-12T00:10:26;23.10;99.90
782;DHT22;374;52.568;13.402;2023-09-12T00:12:53;23.10;99.90
782;DHT22;374;52.568;13.402;2023-09-12T00:15:19;23.00;99.90
782;DHT22;374;52.568;13.402;2023-09-12T00:17:45;23.10;99.90
782;DHT22;374;52.568;13.402;2023-09-12T00:20:10;23.10;99.90
782;DHT22;374;52.568;13.402;2023-09-12T00:22:36;23.00;99.90
782;DHT22;374;52.568;13.402;2023-09-12T00:25:02;22.90;99.90
782;DHT22;374;52.568;13.402;2023-09-12T00:27:27;22.90;99.90
782;DHT22;374;52.568;13.402;2023-09-12T00:29:53;22.90;99.90
782;DHT22;374;52.568;13.402;2023-09-12T00:32:18;22.90;99.90
782;DHT22;374;52.568;13.402;2023-09-12T00:34:44;22.90;99.90
782;DHT22;374;52.568;13.402;2023-09-12T00:37:09;22.90;99.90
782;DHT22;374;52.568;13.402;2023-09-12T00:39:35;22.80;99.90
782;DHT22;374;52.568;13.402;2023-09-12T00:42:00;22.90;99.90
782;DHT22;374;52.568;13.402;2023-09-12T00:44:26;22.80;99.90
782;DHT22;374;52.568;13.402;2023-09-12T00:46:53;22.80;99.90
782;DHT22;374;52.568;13.402;2023-09-12T00:49:20;22.80;99.90
782;DHT22;374;52.568;13.402;2023-09-12T00:51:48;22.80;99.90
782;DHT22;374;52.568;13.402;2023-09-12T00:54:14;22.70;99.90
782;DHT22;374;52.568;13.402;2023-09-12T00:56:40;22.70;99.90
782;DHT22;374;52.568;13.402;2023-09-12T00:59:06;22.70;99.90
782;DHT22;374;52.568;13.402;2023-09-12T01:01:32;22.70;99.90
782;DHT22;374;52.568;13.402;2023-09-12T01:03:58;22.70;99.90
782;DHT22;374;52.568;13.402;2023-09-12T01:06:24;22.70;99.90
782;DHT22;374;52.568;13.402;2023-09-12T01:08:52;22.70;99.90
782;DHT22;374;52.568;13.402;2023-09-12T01:11:17;22.70;99.90
782;DHT22;374;52.568;13.402;2023-09-12T01:13:43;22.60;99.90
782;DHT22;374;52.568;13.402;2023-09-12T01:16:09;22.70;99.90
782;DHT22;374;52.568;13.402;2023-09-12T01:18:35;22.60;99.90
782;DHT22;374;52.568;13.402;2023-09-12T01:21:26;22.60;99.90
782;DHT22;374;52.568;13.402;2023-09-12T01:26:59;22.60;99.90
782;DHT22;374;52.568;13.402;2023-09-12T01:29:30;22.60;99.90
782;DHT22;374;52.568;13.402;2023-09-12T01:31:57;22.60;99.90
782;DHT22;374;52.568;13.402;2023-09-12T01:34:24;22.50;99.90
782;DHT22;374;52.568;13.402;2023-09-12T01:36:49;22.50;99.90
782;DHT22;374;52.568;13.402;2023-09-12T01:39:14;22.50;99.90
782;DHT22;374;52.568;13.402;2023-09-12T01:41:41;22.50;99.90
782;DHT22;374;52.568;13.402;2023-09-12T01:44:09;22.50;99.90
782;DHT22;374;52.568;13.402;2023-09-12T01:46:36;22.50;99.90
782;DHT22;374;52.568;13.402;2023-09-12T01:49:03;22.50;99.90
782;DHT22;374;52.568;13.402;2023-09-12T01:51:29;22.40;99.90
782;DHT22;374;52.568;13.402;2023-09-12T01:53:55;22.50;99.90
782;DHT22;374;52.568;13.402;2023-09-12T01:56:22;22.40;99.90
782;DHT22;374;52.568;13.402;2023-09-12T01:58:48;22.40;99.90
782;DHT22;374;52.568;13.402;2023-09-12T02:01:14;22.30;99.90
782;DHT22;374;52.568;13.402;2023-09-12T02:03:40;22.30;99.90
782;DHT22;374;52.568;13.402;2023-09-12T02:06:05;22.30;99.90
782;DHT22;374;52.568;13.402;2023-09-12T02:08:30;22.30;99.90
782;DHT22;374;52.568;13.402;2023-09-12T02:10:56;22.30;99.90
782;DHT22;374;52.568;13.402;2023-09-12T02:13:21;22.30;99.90
782;DHT22;374;52.568;13.402;2023-09-12T02:15:47;22.30;99.90
782;DHT22;374;52.568;13.402;2023-09-12T02:18:12;22.20;99.90
782;DHT22;374;52.568;13.402;2023-09-12T02:20:40;22.20;99.90
782;DHT22;374;52.568;13.402;2023-09-12T02:23:05;22.20;99.90
782;DHT22;374;52.568;13.402;2023-09-12T02:25:31;22.30;99.90
782;DHT22;374;52.568;13.402;2023-09-12T02:27:56;22.20;99.90
782;DHT22;374;52.568;13.402;2023-09-12T02:30:22;22.20;99.90
782;DHT22;374;52.568;13.402;2023-09-12T02:32:47;22.20;99.90
782;DHT22;374;52.568;13.402;2023-09-12T02:35:13;22.20;99.90
782;DHT22;374;52.568;13.402;2023-09-12T02:37:38;22.10;99.90
782;DHT22;374;52.568;13.402;2023-09-12T02:40:04;22.10;99.90
782;DHT22;374;52.568;13.402;2023-09-12T02:42:32;22.20;99.90
782;DHT22;374;52.568;13.402;2023-09-12T02:44:57;22.20;99.90
782;DHT22;374;52.568;13.402;2023-09-12T02:47:23;22.20;99.90
782;DHT22;374;52.568;13.402;2023-09-12T02:49:48;22.10;99.90
782;DHT22;374;52.568;13.402;2023-09-12T02:52:14;22.20;99.90
782;DHT22;374;52.568;13.402;2023-09-12T02:54:39;22.10;99.90
782;DHT22;374;52.568;13.402;2023-09-12T02:57:04;22.20;99.90
782;DHT22;374;52.568;13.402;2023-09-12T02:59:30;22.20;99.90
782;DHT22;374;52.568;13.402;2023-09-12T03:01:56;22.10;99.90
782;DHT22;374;52.568;13.402;2023-09-12T03:04:21;22.10;99.90
782;DHT22;374;52.568;13.402;2023-09-12T03:06:47;22.10;99.90
782;DHT22;374;52.568;13.402;2023-09-12T03:09:13;22.10;99.90
782;DHT22;374;52.568;13.402;2023-09-12T03:11:39;22.10;99.90
782;DHT22;374;52.568;13.402;2023-09-12T03:14:04;22.10;99.90
782;DHT22;374;52.568;13.402;2023-09-12T03:16:30;22.10;99.90
782;DHT22;374;52.568;13.402;2023-09-12T03:18:56;22.10;99.90
782;DHT22;374;52.568;13.402;2023-09-12T03:21:21;22.10;99.90
782;DHT22;374;52.568;13.402;2023-09-12T03:23:46;22.10;99.90
782;DHT22;374;52.568;13.402;2023-09-12T03:26:12;22.00;99.90
782;DHT22;374;52.568;13.402;2023-09-12T03:28:37;22.00;99.90
782;DHT22;374;52.568;13.402;2023-09-12T03:31:11;22.00;99.90
782;DHT22;374;52.568;13.402;2023-09-12T03:33:38;22.00;99.90
782;DHT22;374;52.568;13.402;2023-09-12T03:36:04;22.00;99.90
782;DHT22;374;52.568;13.402;2023-09-12T03:38:30;21.90;99.90
782;DHT22;374;52.568;13.402;2023-09-12T03:40:55;21.90;99.90
782;DHT22;374;52.568;13.402;2023-09-12T03:43:21;21.90;99.90
782;DHT22;374;52.568;13.402;2023-09-12T03:45:46;21.90;99.90
782;DHT22;374;52.568;13.402;2023-09-12T03:48:12;21.90;99.90
782;DHT22;374;52.568;13.402;2023-09-12T03:50:37;21.90;99.90
782;DHT22;374;52.568;13.402;2023-09-12T03:53:03;21.80;99.90
782;DHT22;374;52.568;13.402;2023-09-12T03:55:28;21.80;99.90
782;DHT22;374;52.568;13.402;2023-09-12T03:57:54;21.80;99.90
782;DHT22;374;52.568;13.402;2023-09-12T04:00:19;21.80;99.90
782;DHT22;374;52.568;13.402;2023-09-12T04:02:44;21.80;99.90
782;DHT22;374;52.568;13.402;2023-09-12T04:05:10;21.80;99.90
782;DHT22;374;52.568;13.402;2023-09-12T04:07:35;21.80;99.90
782;DHT22;374;52.568;13.402;2023-09-12T04:10:01;21.80;99.90
782;DHT22;374;52.568;13.402;2023-09-12T04:12:26;21.70;99.90
782;DHT22;374;52.568;13.402;2023-09-12T04:14:52;21.70;99.90
782;DHT22;374;52.568;13.402;2023-09-12T04:17:18;21.70;99.90
782;DHT22;374;52.568;13.402;2023-09-12T04:19:43;21.60;99.90
782;DHT22;374;52.568;13.402;2023-09-12T04:22:09;21.60;99.90
782;DHT22;374;52.568;13.402;2023-09-12T04:24:34;21.60;99.90
782;DHT22;374;52.568;13.402;2023-09-12T04:27:00;21.60;99.90
782;DHT22;374;52.568;13.402;2023-09-12T04:29:25;21.60;99.90
782;DHT22;374;52.568;13.402;2023-09-12T04:31:52;21.60;99.90
782;DHT22;374;52.568;13.402;2023-09-12T04:34:24;21.70;99.90
782;DHT22;374;52.568;13.402;2023-09-12T04:36:49;21.70;99.90
782;DHT22;374;52.568;13.402;2023-09-12T04:39:15;21.60;99.90
782;DHT22;374;52.568;13.402;2023-09-12T04:41:40;21.60;99.90
782;DHT22;374;52.568;13.402;2023-09-12T04:44:05;21.60;99.90
782;DHT22;374;52.568;13.402;2023-09-12T04:46:31;21.60;99.90
782;DHT22;374;52.568;13.402;2023-09-12T04:48:56;21.60;99.90
782;DHT22;374;52.568;13.402;2023-09-12T04:51:22;21.60;99.90
782;DHT22;374;52.568;13.402;2023-09-12T04:53:47;21.60;99.90
782;DHT22;374;52.568;13.402;2023-09-12T04:56:16;21.60;99.90
782;DHT22;374;52.568;13.402;2023-09-12T04:58:42;21.60;99.90
782;DHT22;374;52.568;13.402;2023-09-12T05:01:07;21.60;99.90
782;DHT22;374;52.568;13.402;2023-09-12T05:03:33;21.60;99.90
782;DHT22;374;52.568;13.402;2023-09-12T05:05:59;21.50;99.90
782;DHT22;374;52.568;13.402;2023-09-12T05:08:24;21.50;99.90
782;DHT22;374;52.568;13.402;2023-09-12T05:10:50;21.50;99.90
782;DHT22;374;52.568;13.402;2023-09-12T05:13:15;21.50;99.90
782;DHT22;374;52.568;13.402;2023-09-12T05:15:41;21.50;99.90
782;DHT22;374;52.568;13.402;2023-09-12T05:18:07;21.50;99.90
782;DHT22;374;52.568;13.402;2023-09-12T05:20:33;21.50;99.90
782;DHT22;374;52.568;13.402;2023-09-12T05:22:58;21.50;99.90
782;DHT22;374;52.568;13.402;2023-09-12T05:25:24;21.50;99.90
782;DHT22;374;52.568;13.402;2023-09-12T05:27:49;21.50;99.90
782;DHT22;374;52.568;13.402;2023-09-12T05:30:15;21.50;99.90
782;DHT22;374;52.568;13.402;2023-09-12T05:32:41;21.50;99.90
782;DHT22;374;52.568;13.402;2023-09-12T05:35:07;21.50;99.90
782;DHT22;374;52.568;13.402;2023-09-12T05:37:32;21.50;99.90
782;DHT22;374;52.568;13.402;2023-09-12T05:39:58;21.50;99.90
782;DHT22;374;52.568;13.402;2023-09-12T05:42:23;21.50;99.90
782;DHT22;374;52.568;13.402;2023-09-12T05:44:49;21.60;99.90
782;DHT22;374;52.568;13.402;2023-09-12T05:47:16;21.60;99.90
782;DHT22;374;52.568;13.402;2023-09-12T05:49:41;21.60;99.90
782;DHT22;374;52.568;13.402;2023-09-12T05:52:07;21.60;99.90
782;DHT22;374;52.568;13.402;2023-09-12T05:54:32;21.60;99.90
782;DHT22;374;52.568;13.402;2023-09-12T05:56:58;21.60;99.90
782;DHT22;374;52.568;13.402;2023-09-12T05:59:23;21.60;99.90
782;DHT22;374;52.568;13.402;2023-09-12T06:01:49;21.60;99.90
782;DHT22;374;52.568;13.402;2023-09-12T06:04:14;21.60;99.90
782;DHT22;374;52.568;13.402;2023-09-12T06:06:40;21.70;99.90
782;DHT22;374;52.568;13.402;2023-09-12T06:09:06;21.60;99.90
782;DHT22;374;52.568;13.402;2023-09-12T06:11:31;21.70;99.90
782;DHT22;374;52.568;13.402;2023-09-12T06:13:57;21.70;99.90
782;DHT22;374;52.568;13.402;2023-09-12T06:16:22;21.70;99.90
782;DHT22;374;52.568;13.402;2023-09-12T06:18:48;21.70;99.90
782;DHT22;374;52.568;13.402;2023-09-12T06:21:14;21.70;99.90
782;DHT22;374;52.568;13.402;2023-09-12T06:23:39;21.60;99.90
782;DHT22;374;52.568;13.402;2023-09-12T06:26:05;21.70;99.90
782;DHT22;374;52.568;13.402;2023-09-12T06:28:31;21.70;99.90
782;DHT22;374;52.568;13.402;2023-09-12T06:30:57;21.70;99.90
782;DHT22;374;52.568;13.402;2023-09-12T06:33:24;21.70;99.90
782;DHT22;374;52.568;13.402;2023-09-12T06:35:50;21.70;99.90
782;DHT22;374;52.568;13.402;2023-09-12T06:38:21;21.70;99.90
782;DHT22;374;52.568;13.402;2023-09-12T06:40:47;21.70;99.90
782;DHT22;374;52.568;13.402;2023-09-12T06:43:13;21.70;99.90
782;DHT22;374;52.568;13.402;2023-09-12T06:45:40;21.70;99.90
782;DHT22;374;52.568;13.402;2023-09-12T06:48:06;21.70;99.90
782;DHT22;374;52.568;13.402;2023-09-12T06:50:32;21.60;99.90
782;DHT22;374;52.568;13.402;2023-09-12T06:52:57;21.60;99.90
782;DHT22;374;52.568;13.402;2023-09-12T06:55:24;21.60;99.90
782;DHT22;374;52.568;13.402;2023-09-12T06:57:49;21.60;99.90
782;DHT22;374;52.568;13.402;2023-09-12T07:00:15;21.60;99.90
782;DHT22;374;52.568;13.402;2023-09-12T07:02:40;21.60;99.90
782;DHT22;374;52.568;13.402;2023-09-12T07:05:06;21.60;99.90
782;DHT22;374;52.568;13.402;2023-09-12T07:07:33;21.60;99.90
782;DHT22;374;52.568;13.402;2023-09-12T07:09:58;21.60;99.90
782;DHT22;374;52.568;13.402;2023-09-12T07:12:25;21.60;99.90
782;DHT22;374;52.568;13.402;2023-09-12T07:14:51;21.60;99.90
782;DHT22;374;52.568;13.402;2023-09-12T07:17:17;21.60;99.90
782;DHT22;374;52.568;13.402;2023-09-12T07:19:43;21.60;99.90
782;DHT22;374;52.568;13.402;2023-09-12T07:22:08;21.60;99.90
782;DHT22;374;52.568;13.402;2023-09-12T07:24:34;21.60;99.90
782;DHT22;374;52.568;13.402;2023-09-12T07:26:59;21.60;99.90
782;DHT22;374;52.568;13.402;2023-09-12T07:29:25;21.60;99.90
782;DHT22;374;52.568;13.402;2023-09-12T07:31:54;21.60;99.90
782;DHT22;374;52.568;13.402;2023-09-12T07:34:20;21.60;99.90
782;DHT22;374;52.568;13.402;2023-09-12T07:36:46;21.60;99.90
782;DHT22;374;52.568;13.402;2023-09-12T07:39:11;21.60;99.90
782;DHT22;374;52.568;13.402;2023-09-12T07:41:37;21.60;99.90
782;DHT22;374;52.568;13.402;2023-09-12T07:44:02;21.60;99.90
782;DHT22;374;52.568;13.402;2023-09-12T07:46:30;21.60;99.90
782;DHT22;374;52.568;13.402;2023-09-12T07:48:56;21.60;99.90
782;DHT22;374;52.568;13.402;2023-09-12T07:51:22;21.70;99.90
782;DHT22;374;52.568;13.402;2023-09-12T07:53:48;21.70;99.90
782;DHT22;374;52.568;13.402;2023-09-12T07:56:13;21.70;99.90
782;DHT22;374;52.568;13.402;2023-09-12T07:58:39;21.70;99.90
782;DHT22;374;52.568;13.402;2023-09-12T08:01:08;21.70;99.90
782;DHT22;374;52.568;13.402;2023-09-12T08:03:34;21.80;99.90
782;DHT22;374;52.568;13.402;2023-09-12T08:06:00;21.80;99.90
782;DHT22;374;52.568;13.402;2023-09-12T08:08:26;21.80;99.90
782;DHT22;374;52.568;13.402;2023-09-12T08:10:51;21.90;99.90
782;DHT22;374;52.568;13.402;2023-09-12T08:13:18;21.90;99.90
782;DHT22;374;52.568;13.402;2023-09-12T08:15:45;21.90;99.90
782;DHT22;374;52.568;13.402;2023-09-12T08:18:10;21.90;99.90
782;DHT22;374;52.568;13.402;2023-09-12T08:20:36;21.90;99.90
782;DHT22;374;52.568;13.402;2023-09-12T08:23:01;22.00;99.90
782;DHT22;374;52.568;13.402;2023-09-12T08:25:27;22.00;99.90
782;DHT22;374;52.568;13.402;2023-09-12T08:27:53;22.00;99.90
782;DHT22;374;52.568;13.402;2023-09-12T08:30:18;22.10;99.90
782;DHT22;374;52.568;13.402;2023-09-12T08:32:44;22.10;99.90
782;DHT22;374;52.568;13.402;2023-09-12T08:35:10;22.10;99.90
782;DHT22;374;52.568;13.402;2023-09-12T08:37:38;22.10;99.90
782;DHT22;374;52.568;13.402;2023-09-12T08:40:05;22.20;99.90
782;DHT22;374;52.568;13.402;2023-09-12T08:42:33;22.20;99.90
782;DHT22;374;52.568;13.402;2023-09-12T08:45:02;22.20;99.90
782;DHT22;374;52.568;13.402;2023-09-12T08:47:29;22.20;99.90
782;DHT22;374;52.568;13.402;2023-09-12T08:49:56;22.20;99.90
782;DHT22;374;52.568;13.402;2023-09-12T08:52:22;22.30;99.90
782;DHT22;374;52.568;13.402;2023-09-12T08:54:47;22.30;99.90
782;DHT22;374;52.568;13.402;2023-09-12T08:57:13;22.30;99.90
782;DHT22;374;52.568;13.402;2023-09-12T08:59:40;22.30;99.90
782;DHT22;374;52.568;13.402;2023-09-12T09:02:08;22.40;99.90
782;DHT22;374;52.568;13.402;2023-09-12T09:04:35;22.40;99.90
782;DHT22;374;52.568;13.402;2023-09-12T09:07:03;22.40;99.90
782;DHT22;374;52.568;13.402;2023-09-12T09:09:29;22.50;99.90
782;DHT22;374;52.568;13.402;2023-09-12T09:11:55;22.50;99.90
782;DHT22;374;52.568;13.402;2023-09-12T09:14:21;22.50;99.90
782;DHT22;374;52.568;13.402;2023-09-12T09:16:46;22.60;99.90
782;DHT22;374;52.568;13.402;2023-09-12T09:19:13;22.60;99.90
782;DHT22;374;52.568;13.402;2023-09-12T09:21:41;22.60;99.90
782;DHT22;374;52.568;13.402;2023-09-12T09:24:13;22.60;99.90
782;DHT22;374;52.568;13.402;2023-09-12T09:26:45;22.60;99.90
782;DHT22;374;52.568;13.402;2023-09-12T09:29:19;22.60;99.90
782;DHT22;374;52.568;13.402;2023-09-12T09:31:47;22.60;99.90
782;DHT22;374;52.568;13.402;2023-09-12T09:34:17;22.70;99.90
782;DHT22;374;52.568;13.402;2023-09-12T09:36:50;22.70;99.90
782;DHT22;374;52.568;13.402;2023-09-12T09:39:17;22.70;99.90
782;DHT22;374;52.568;13.402;2023-09-12T09:41:48;22.70;99.90
782;DHT22;374;52.568;13.402;2023-09-12T09:44:16;22.70;99.90
782;DHT22;374;52.568;13.402;2023-09-12T09:46:46;22.70;99.90
782;DHT22;374;52.568;13.402;2023-09-12T09:49:15;22.80;99.90
782;DHT22;374;52.568;13.402;2023-09-12T09:51:41;22.80;99.90
782;DHT22;374;52.568;13.402;2023-09-12T09:54:15;22.80;99.90
782;DHT22;374;52.568;13.402;2023-09-12T09:56:55;22.80;99.90
782;DHT22;374;52.568;13.402;2023-09-12T09:59:25;22.90;99.90
782;DHT22;374;52.568;13.402;2023-09-12T10:01:57;22.90;99.90
782;DHT22;374;52.568;13.402;2023-09-12T10:04:25;22.90;99.90
782;DHT22;374;52.568;13.402;2023-09-12T10:06:55;22.90;99.90
782;DHT22;374;52.568;13.402;2023-09-12T10:09:22;22.90;99.90
782;DHT22;374;52.568;13.402;2023-09-12T10:11:51;22.90;99.90
782;DHT22;374;52.568;13.402;2023-09-12T10:14:19;22.90;99.90
782;DHT22;374;52.568;13.402;2023-09-12T10:16:47;23.00;99.90
782;DHT22;374;52.568;13.402;2023-09-12T10:19:22;23.00;99.90
782;DHT22;374;52.568;13.402;2023-09-12T10:22:06;23.00;99.90
782;DHT22;374;52.568;13.402;2023-09-12T10:24:35;23.00;99.90
782;DHT22;374;52.568;13.402;2023-09-12T10:27:02;23.10;99.90
782;DHT22;374;52.568;13.402;2023-09-12T10:29:29;23.10;99.90
782;DHT22;374;52.568;13.402;2023-09-12T10:31:56;23.20;99.90
782;DHT22;374;52.568;13.402;2023-09-12T10:34:22;23.10;99.90
782;DHT22;374;52.568;13.402;2023-09-12T10:36:48;23.20;99.90
782;DHT22;374;52.568;13.402;2023-09-12T10:39:14;23.20;99.90
782;DHT22;374;52.568;13.402;2023-09-12T10:41:40;23.20;99.90
782;DHT22;374;52.568;13.402;2023-09-12T10:44:11;23.20;99.90
782;DHT22;374;52.568;13.402;2023-09-12T10:46:40;23.20;99.90
782;DHT22;374;52.568;13.402;2023-09-12T10:49:07;23.20;99.90
782;DHT22;374;52.568;13.402;2023-09-12T10:51:40;23.20;99.90
782;DHT22;374;52.568;13.402;2023-09-12T10:54:07;23.30;99.90
782;DHT22;374;52.568;13.402;2023-09-12T10:56:36;23.30;99.90
782;DHT22;374;52.568;13.402;2023-09-12T11:01:33;23.30;99.90
782;DHT22;374;52.568;13.402;2023-09-12T11:06:45;23.30;99.90
782;DHT22;374;52.568;13.402;2023-09-12T11:11:40;23.40;99.90
782;DHT22;374;52.568;13.402;2023-09-12T11:14:07;23.40;99.90
782;DHT22;374;52.568;13.402;2023-09-12T11:16:32;23.50;99.90
782;DHT22;374;52.568;13.402;2023-09-12T11:19:14;23.50;99.90
782;DHT22;374;52.568;13.402;2023-09-12T11:21:47;23.50;99.90
782;DHT22;374;52.568;13.402;2023-09-12T11:24:14;23.50;99.90
782;DHT22;374;52.568;13.402;2023-09-12T11:26:59;23.50;99.90
782;DHT22;374;52.568;13.402;2023-09-12T11:29:37;23.50;99.90
782;DHT22;374;52.568;13.402;2023-09-12T11:32:03;23.50;99.90
782;DHT22;374;52.568;13.402;2023-09-12T11:34:37;23.60;99.90
782;DHT22;374;52.568;13.402;2023-09-12T11:37:06;23.60;99.90
782;DHT22;374;52.568;13.402;2023-09-12T11:39:33;23.50;99.90
782;DHT22;374;52.568;13.402;2023-09-12T11:42:00;23.60;99.90
782;DHT22;374;52.568;13.402;2023-09-12T11:44:26;23.60;99.90
782;DHT22;374;52.568;13.402;2023-09-12T11:46:52;23.60;99.90
782;DHT22;374;52.568;13.402;2023-09-12T11:49:19;23.60;99.90
782;DHT22;374;52.568;13.402;2023-09-12T11:51:52;23.60;99.90
782;DHT22;374;52.568;13.402;2023-09-12T11:54:25;23.60;99.90
782;DHT22;374;52.568;13.402;2023-09-12T11:56:51;23.70;99.90
782;DHT22;374;52.568;13.402;2023-09-12T11:59:26;23.70;99.90
782;DHT22;374;52.568;13.402;2023-09-12T12:01:52;23.70;99.90
782;DHT22;374;52.568;13.402;2023-09-12T12:04:20;23.70;99.90
782;DHT22;374;52.568;13.402;2023-09-12T12:06:45;23.70;99.90
782;DHT22;374;52.568;13.402;2023-09-12T12:09:11;23.80;99.90
782;DHT22;374;52.568;13.402;2023-09-12T12:11:37;23.80;99.90
782;DHT22;374;52.568;13.402;2023-09-12T12:14:14;23.80;99.90
782;DHT22;374;52.568;13.402;2023-09-12T12:16:44;23.90;99.90
782;DHT22;374;52.568;13.402;2023-09-12T12:19:10;23.80;99.90
782;DHT22;374;52.568;13.402;2023-09-12T12:21:37;23.80;99.90
782;DHT22;374;52.568;13.402;2023-09-12T12:24:03;23.90;99.90
782;DHT22;374;52.568;13.402;2023-09-12T12:26:30;23.90;99.90
782;DHT22;374;52.568;13.402;2023-09-12T12:28:56;23.90;99.90
782;DHT22;374;52.568;13.402;2023-09-12T12:31:22;23.90;99.90
782;DHT22;374;52.568;13.402;2023-09-12T12:33:51;23.90;99.90
782;DHT22;374;52.568;13.402;2023-09-12T12:36:17;23.90;99.90
782;DHT22;374;52.568;13.402;2023-09-12T12:38:46;23.90;99.90
782;DHT22;374;52.568;13.402;2023-09-12T12:41:30;24.00;99.90
782;DHT22;374;52.568;13.402;2023-09-12T12:43:57;24.00;99.90
782;DHT22;374;52.568;13.402;2023-09-12T12:46:26;24.00;99.90
782;DHT22;374;52.568;13.402;2023-09-12T12:48:51;24.00;99.90
782;DHT22;374;52.568;13.402;2023-09-12T12:51:21;24.00;99.90
782;DHT22;374;52.568;13.402;2023-09-12T12:53:53;24.00;99.90
782;DHT22;374;52.568;13.402;2023-09-12T12:56:27;24.00;99.90
782;DHT22;374;52.568;13.402;2023-09-12T12:59:00;24.10;99.90
782;DHT22;374;52.568;13.402;2023-09-12T13:01:28;24.10;99.90
782;DHT22;374;52.568;13.402;2023-09-12T13:03:53;24.10;99.90
782;DHT22;374;52.568;13.402;2023-09-12T13:06:21;24.10;99.90
782;DHT22;374;52.568;13.402;2023-09-12T13:08:48;24.10;99.90
782;DHT22;374;52.568;13.402;2023-09-12T13:11:15;24.10;99.90
782;DHT22;374;52.568;13.402;2023-09-12T13:13:42;24.10;99.90
782;DHT22;374;52.568;13.402;2023-09-12T13:16:09;24.20;99.90
782;DHT22;374;52.568;13.402;2023-09-12T13:18:36;24.20;99.90
782;DHT22;374;52.568;13.402;2023-09-12T13:21:02;24.20;99.90
782;DHT22;374;52.568;13.402;2023-09-12T13:23:28;24.20;99.90
782;DHT22;374;52.568;13.402;2023-09-12T13:25:55;24.20;99.90
782;DHT22;374;52.568;13.402;2023-09-12T13:28:21;24.20;99.90
782;DHT22;374;52.568;13.402;2023-09-12T13:30:48;24.20;99.90
782;DHT22;374;52.568;13.402;2023-09-12T13:33:14;24.30;99.90
782;DHT22;374;52.568;13.402;2023-09-12T13:35:43;24.30;99.90
782;DHT22;374;52.568;13.402;2023-09-12T13:38:09;24.30;99.90
782;DHT22;374;52.568;13.402;2023-09-12T13:40:38;24.30;99.90
782;DHT22;374;52.568;13.402;2023-09-12T13:43:08;24.40;99.90
782;DHT22;374;52.568;13.402;2023-09-12T13:45:34;24.40;99.90
782;DHT22;374;52.568;13.402;2023-09-12T13:48:00;24.40;99.90
782;DHT22;374;52.568;13.402;2023-09-12T13:50:26;24.40;99.90
782;DHT22;374;52.568;13.402;2023-09-12T13:52:54;24.40;99.90
782;DHT22;374;52.568;13.402;2023-09-12T13:55:21;24.50;99.90
782;DHT22;374;52.568;13.402;2023-09-12T13:57:47;24.40;99.90
782;DHT22;374;52.568;13.402;2023-09-12T14:00:12;24.40;99.90
782;DHT22;374;52.568;13.402;2023-09-12T14:02:38;24.50;99.90
782;DHT22;374;52.568;13.402;2023-09-12T14:05:03;24.50;99.90
782;DHT22;374;52.568;13.402;2023-09-12T14:07:29;24.50;99.90
782;DHT22;374;52.568;13.402;2023-09-12T14:09:54;24.50;99.90
782;DHT22;374;52.568;13.402;2023-09-12T14:12:22;24.50;99.90
782;DHT22;374;52.568;13.402;2023-09-12T14:14:48;24.50;99.90
782;DHT22;374;52.568;13.402;2023-09-12T14:17:14;24.60;99.90
782;DHT22;374;52.568;13.402;2023-09-12T14:19:39;24.60;99.90
782;DHT22;374;52.568;13.402;2023-09-12T14:22:05;24.60;99.90
782;DHT22;374;52.568;13.402;2023-09-12T14:24:30;24.60;99.90
782;DHT22;374;52.568;13.402;2023-09-12T14:26:56;24.60;99.90
782;DHT22;374;52.568;13.402;2023-09-12T14:29:21;24.60;99.90
782;DHT22;374;52.568;13.402;2023-09-12T14:31:47;24.60;99.90
782;DHT22;374;52.568;13.402;2023-09-12T14:34:18;24.70;99.90
782;DHT22;374;52.568;13.402;2023-09-12T14:36:44;24.70;99.90
782;DHT22;374;52.568;13.402;2023-09-12T14:39:11;24.70;99.90
782;DHT22;374;52.568;13.402;2023-09-12T14:41:37;24.70;99.90
782;DHT22;374;52.568;13.402;2023-09-12T14:44:02;24.70;99.90
782;DHT22;374;52.568;13.402;2023-09-12T14:46:28;24.70;99.90
782;DHT22;374;52.568;13.402;2023-09-12T14:48:53;24.70;99.90
782;DHT22;374;52.568;13.402;2023-09-12T14:51:18;24.80;99.90
782;DHT22;374;52.568;13.402;2023-09-12T14:53:44;24.80;99.90
782;DHT22;374;52.568;13.402;2023-09-12T14:56:11;24.80;99.90
782;DHT22;374;52.568;13.402;2023-09-12T14:58:37;24.80;99.90
782;DHT22;374;52.568;13.402;2023-09-12T15:01:03;24.80;99.90
782;DHT22;374;52.568;13.402;2023-09-12T15:03:29;24.90;99.90
782;DHT22;374;52.568;13.402;2023-09-12T15:05:54;24.80;99.90
782;DHT22;374;52.568;13.402;2023-09-12T15:08:20;24.80;99.90
782;DHT22;374;52.568;13.402;2023-09-12T15:10:45;24.80;99.90
782;DHT22;374;52.568;13.402;2023-09-12T15:13:11;24.80;99.90
782;DHT22;374;52.568;13.402;2023-09-12T15:15:38;24.80;99.90
782;DHT22;374;52.568;13.402;2023-09-12T15:18:04;24.90;99.90
782;DHT22;374;52.568;13.402;2023-09-12T15:20:30;24.90;99.90
782;DHT22;374;52.568;13.402;2023-09-12T15:22:55;24.90;99.90
782;DHT22;374;52.568;13.402;2023-09-12T15:25:21;24.90;99.90
782;DHT22;374;52.568;13.402;2023-09-12T15:27:46;24.90;99.90
782;DHT22;374;52.568;13.402;2023-09-12T15:30:12;24.90;99.90
782;DHT22;374;52.568;13.402;2023-09-12T15:32:38;24.90;99.90
782;DHT22;374;52.568;13.402;2023-09-12T15:35:03;24.90;99.90
782;DHT22;374;52.568;13.402;2023-09-12T15:37:29;25.00;99.90
782;DHT22;374;52.568;13.402;2023-09-12T15:39:54;25.00;99.90
782;DHT22;374;52.568;13.402;2023-09-12T15:42:20;24.90;99.90
782;DHT22;374;52.568;13.402;2023-09-12T15:44:46;24.90;99.90
782;DHT22;374;52.568;13.402;2023-09-12T15:47:11;25.00;99.90
782;DHT22;374;52.568;13.402;2023-09-12T15:49:37;24.90;99.90
782;DHT22;374;52.568;13.402;2023-09-12T15:52:03;24.90;99.90
782;DHT22;374;52.568;13.402;2023-09-12T15:54:29;25.00;99.90
782;DHT22;374;52.568;13.402;2023-09-12T15:56:55;25.00;99.90
782;DHT22;374;52.568;13.402;2023-09-12T15:59:21;25.00;99.90
782;DHT22;374;52.568;13.402;2023-09-12T16:01:46;25.00;99.90
782;DHT22;374;52.568;13.402;2023-09-12T16:04:12;25.00;99.90
782;DHT22;374;52.568;13.402;2023-09-12T16:06:38;25.00;99.90
782;DHT22;374;52.568;13.402;2023-09-12T16:09:04;25.00;99.90
782;DHT22;374;52.568;13.402;2023-09-12T16:11:31;25.00;99.90
782;DHT22;374;52.568;13.402;2023-09-12T16:13:56;25.00;99.90
782;DHT22;374;52.568;13.402;2023-09-12T16:16:22;25.00;99.90
782;DHT22;374;52.568;13.402;2023-09-12T16:18:48;25.10;99.90
782;DHT22;374;52.568;13.402;2023-09-12T16:21:14;25.00;99.90
782;DHT22;374;52.568;13.402;2023-09-12T16:23:39;25.00;99.90